createdAt,value
2024-01-26T00:03:50.773Z,41.10
2024-01-26T00:08:53.921Z,24.87
2024-01-26T00:13:56.787Z,20.13
2024-01-26T00:18:59.457Z,28.33
2024-01-26T00:24:02.525Z,23.53
2024-01-26T00:29:05.184Z,32.83
2024-01-26T00:34:08.160Z,30.53
2024-01-26T00:39:11.277Z,22.90
2024-01-26T00:44:13.876Z,31.67
2024-01-26T00:49:16.676Z,26.27
2024-01-26T00:54:19.481Z,21.43
2024-01-26T00:59:22.086Z,26.73
2024-01-26T01:04:26.183Z,26.47
2024-01-26T01:09:29.269Z,23.87
2024-01-26T01:14:31.966Z,30.43
2024-01-26T01:19:34.717Z,32.97
2024-01-26T01:24:37.875Z,32.50
2024-01-26T01:29:40.530Z,20.37
2024-01-26T01:34:44.675Z,21.03
2024-01-26T01:39:47.315Z,15.93
2024-01-26T01:44:50.188Z,13.77
2024-01-26T01:49:53.013Z,18.33
2024-01-26T01:55:03.377Z,12.23
2024-01-26T02:00:07.106Z,16.27
2024-01-26T02:05:09.913Z,11.97
2024-01-26T02:10:12.575Z,14.53
2024-01-26T02:15:15.493Z,27.40
2024-01-26T02:20:18.600Z,20.50
2024-01-26T02:25:21.326Z,24.07
2024-01-26T02:30:23.885Z,25.37
2024-01-26T02:35:26.541Z,16.37
2024-01-26T02:40:30.791Z,19.50
2024-01-26T02:45:33.601Z,19.47
2024-01-26T02:50:36.548Z,17.70
2024-01-26T02:55:39.186Z,17.57
2024-01-26T03:00:42.441Z,14.13
2024-01-26T03:05:45.214Z,20.23
2024-01-26T03:10:48.032Z,26.97
2024-01-26T03:15:53.411Z,30.77
2024-01-26T03:20:56.145Z,26.50
2024-01-26T03:25:58.929Z,29.73
2024-01-26T03:31:01.472Z,26.43
2024-01-26T03:36:04.434Z,23.03
2024-01-26T03:41:07.234Z,37.60
2024-01-26T03:46:09.862Z,33.53
2024-01-26T03:51:13.168Z,32.13
2024-01-26T03:56:15.868Z,23.67
2024-01-26T04:01:18.491Z,24.83
2024-01-26T04:06:21.528Z,18.40
2024-01-26T04:11:24.298Z,21.07
2024-01-26T04:16:26.951Z,21.77
2024-01-26T04:21:30.144Z,21.70
2024-01-26T04:26:32.882Z,15.60
2024-01-26T04:31:41.395Z,13.87
2024-01-26T04:36:50.464Z,24.07
2024-01-26T04:41:53.120Z,33.70
2024-01-26T04:46:56.579Z,39.67
2024-01-26T04:52:00.104Z,45.53
2024-01-26T04:57:02.682Z,43.90
2024-01-26T05:02:05.363Z,56.37
2024-01-26T05:07:09.005Z,40.57
2024-01-26T05:12:12.097Z,30.03
2024-01-26T05:17:14.780Z,21.97
2024-01-26T05:22:17.463Z,22.20
2024-01-26T05:27:20.086Z,19.43
2024-01-26T05:32:23.627Z,22.57
2024-01-26T05:37:26.264Z,20.33
2024-01-26T05:42:28.967Z,12.50
2024-01-26T05:47:31.678Z,19.33
2024-01-26T05:52:34.703Z,16.63
2024-01-26T05:57:37.240Z,14.23
2024-01-26T06:02:39.902Z,16.00
2024-01-26T06:07:42.590Z,28.37
2024-01-26T06:12:45.416Z,28.23
2024-01-26T06:17:49.139Z,12.23
2024-01-26T06:22:51.785Z,23.17
2024-01-26T06:27:54.371Z,25.87
2024-01-26T06:32:57.144Z,32.13
2024-01-26T06:38:00.327Z,26.63
2024-01-26T06:43:07.663Z,28.93
2024-01-26T06:48:10.539Z,26.10
2024-01-26T06:53:13.429Z,24.63
2024-01-26T06:58:16.087Z,13.17
2024-01-26T07:03:18.746Z,27.13
2024-01-26T07:08:21.439Z,28.27
2024-01-26T07:13:24.186Z,19.83
2024-01-26T07:18:27.037Z,15.10
2024-01-26T07:23:29.693Z,24.53
2024-01-26T07:28:32.343Z,27.50
2024-01-26T07:33:35.044Z,22.50
2024-01-26T07:38:37.931Z,29.83
2024-01-26T07:43:40.992Z,40.47
2024-01-26T07:48:43.695Z,46.17
2024-01-26T07:53:46.519Z,34.67
2024-01-26T07:58:49.245Z,36.77
2024-01-26T08:03:52.391Z,31.60
2024-01-26T08:08:55.214Z,36.80
2024-01-26T08:13:59.978Z,49.97
2024-01-26T08:19:03.191Z,32.97
2024-01-26T08:24:07.788Z,26.40
2024-01-26T08:29:13.602Z,34.47
2024-01-26T08:34:16.818Z,23.67
2024-01-26T08:39:19.724Z,45.03
2024-01-26T08:44:22.513Z,55.17
2024-01-26T08:49:25.425Z,52.33
2024-01-26T08:54:28.559Z,56.80
2024-01-26T08:59:31.317Z,40.43
2024-01-26T09:04:34.193Z,68.07
2024-01-26T09:09:36.933Z,49.90
2024-01-26T09:14:39.948Z,47.20
2024-01-26T09:19:43.375Z,39.10
2024-01-26T09:24:46.199Z,39.37
2024-01-26T09:29:49.250Z,42.77
2024-01-26T09:34:52.056Z,38.30
2024-01-26T09:39:55.062Z,47.50
2024-01-26T09:44:57.947Z,39.10
2024-01-26T09:50:04.507Z,35.37
2024-01-26T09:55:09.071Z,42.87
2024-01-26T10:00:12.757Z,40.93
2024-01-26T10:05:22.016Z,48.03
2024-01-26T10:10:25.147Z,42.77
2024-01-26T10:15:27.840Z,48.53
2024-01-26T10:20:30.554Z,49.60
2024-01-26T10:25:37.039Z,32.00
2024-01-26T10:30:46.029Z,35.23
2024-01-26T10:35:51.550Z,36.53
2024-01-26T10:41:06.763Z,36.30
2024-01-26T10:46:10.578Z,35.83
2024-01-26T10:51:15.825Z,27.33
2024-01-26T10:56:18.952Z,34.17
2024-01-26T11:01:21.775Z,31.67
2024-01-26T11:06:24.528Z,32.00
2024-01-26T11:11:34.157Z,62.93
2024-01-26T11:16:42.093Z,38.17
2024-01-26T11:21:47.905Z,50.27
2024-01-26T11:27:00.897Z,70.80
2024-01-26T11:32:17.442Z,51.80
2024-01-26T11:37:20.049Z,133.73
2024-01-26T11:42:24.558Z,43.13
2024-01-26T11:47:28.709Z,80.80
2024-01-26T11:52:33.506Z,53.37
2024-01-26T11:57:37.243Z,54.87
2024-01-26T12:02:39.952Z,46.27
2024-01-26T12:07:43.021Z,98.30
2024-01-26T12:12:49.178Z,58.97
2024-01-26T12:17:51.844Z,49.83
2024-01-26T12:22:57.641Z,46.53
2024-01-26T12:28:04.011Z,56.63
2024-01-26T12:33:11.642Z,34.23
2024-01-26T12:38:14.693Z,43.13
2024-01-26T12:43:17.776Z,36.07
2024-01-26T12:48:23.287Z,42.63
2024-01-26T12:53:25.977Z,39.57
2024-01-26T12:58:28.859Z,39.40
2024-01-26T13:03:33.185Z,42.70
2024-01-26T13:08:35.974Z,40.57
2024-01-26T13:13:42.557Z,48.07
2024-01-26T13:18:48.301Z,54.30
2024-01-26T13:23:51.518Z,56.53
2024-01-26T13:28:54.748Z,39.07
2024-01-26T13:33:57.422Z,39.83
2024-01-26T13:39:00.160Z,39.97
2024-01-26T13:44:02.793Z,40.17
2024-01-26T13:49:05.497Z,31.97
2024-01-26T13:54:08.347Z,33.17
2024-01-26T13:59:11.402Z,41.07
2024-01-26T14:04:14.133Z,30.20
2024-01-26T14:09:16.844Z,40.47
2024-01-26T14:14:21.458Z,47.87
2024-01-26T14:19:24.117Z,33.73
2024-01-26T14:24:28.149Z,45.20
2024-01-26T14:29:30.757Z,29.10
2024-01-26T14:34:33.479Z,41.27
2024-01-26T14:39:36.106Z,82.87
2024-01-26T14:44:39.887Z,45.47
2024-01-26T14:49:42.625Z,100.07
2024-01-26T14:54:46.505Z,137.97
2024-01-26T14:59:49.596Z,83.57
2024-01-26T15:04:52.143Z,85.57
2024-01-26T15:09:54.662Z,41.10
2024-01-26T15:14:57.221Z,86.93
2024-01-26T15:20:03.107Z,46.23
2024-01-26T15:25:06.429Z,62.60
2024-01-26T15:30:10.092Z,53.10
2024-01-26T15:35:13.505Z,42.07
2024-01-26T15:40:17.020Z,73.97
2024-01-26T15:45:19.800Z,52.00
2024-01-26T15:50:23.840Z,49.70
2024-01-26T15:55:26.422Z,42.17
2024-01-26T16:00:29.216Z,70.20
2024-01-26T16:05:31.886Z,57.60
2024-01-26T16:10:39.106Z,51.97
2024-01-26T16:15:41.654Z,39.93
2024-01-26T16:20:44.279Z,60.40
2024-01-26T16:25:46.873Z,53.20
2024-01-26T16:30:49.428Z,54.80
2024-01-26T16:35:52.199Z,49.63
2024-01-26T16:40:54.885Z,37.93
2024-01-26T16:45:57.466Z,63.80
2024-01-26T16:51:00.008Z,101.27
2024-01-26T16:56:02.640Z,111.17
2024-01-26T17:01:05.499Z,68.97
2024-01-26T17:06:08.498Z,115.30
2024-01-26T17:11:11.459Z,117.33
2024-01-26T17:16:14.015Z,50.47
2024-01-26T17:21:16.607Z,58.87
2024-01-26T17:26:19.180Z,114.77
2024-01-26T17:31:21.772Z,110.83
2024-01-26T17:36:25.217Z,102.10
2024-01-26T17:41:27.841Z,89.60
2024-01-26T17:46:33.312Z,74.47
2024-01-26T17:51:42.757Z,74.20
2024-01-26T17:56:45.326Z,83.77
2024-01-26T18:01:48.326Z,63.13
2024-01-26T18:06:51.312Z,68.73
2024-01-26T18:11:53.990Z,92.83
2024-01-26T18:16:56.631Z,101.60
2024-01-26T18:22:00.271Z,97.33
2024-01-26T18:27:04.051Z,54.03
2024-01-26T18:32:07.075Z,81.87
2024-01-26T18:37:09.959Z,94.63
2024-01-26T18:42:12.592Z,64.87
2024-01-26T18:47:15.226Z,46.27
2024-01-26T18:52:19.693Z,56.03
2024-01-26T18:57:23.553Z,49.07
2024-01-26T19:02:27.059Z,8.50
2024-01-26T19:07:29.857Z,7.80
2024-01-26T19:12:32.653Z,23.37
2024-01-26T19:17:35.428Z,16.40
2024-01-26T19:22:38.096Z,24.10
2024-01-26T19:27:40.989Z,19.70
2024-01-26T19:32:44.681Z,15.30
2024-01-26T19:37:47.216Z,12.17
2024-01-26T19:42:49.821Z,11.27
2024-01-26T19:47:52.630Z,18.33
2024-01-26T19:52:55.781Z,28.40
2024-01-26T19:57:58.848Z,12.83
2024-01-26T20:03:01.827Z,11.80
2024-01-26T20:08:04.799Z,6.13
2024-01-26T20:13:08.391Z,3.80
2024-01-26T20:18:11.262Z,2.93
2024-01-26T20:23:13.983Z,5.07
2024-01-26T20:28:18.134Z,6.23
2024-01-26T20:33:20.996Z,7.20
2024-01-26T20:38:23.838Z,5.57
2024-01-26T20:43:27.053Z,10.63
2024-01-26T20:48:30.230Z,13.87
2024-01-26T20:53:32.878Z,9.43
2024-01-26T20:58:35.564Z,9.47
2024-01-26T21:03:38.482Z,9.93
2024-01-26T21:08:41.231Z,7.67
2024-01-26T21:13:44.063Z,15.77
2024-01-26T21:18:46.696Z,12.73
2024-01-26T21:23:57.348Z,8.83
2024-01-26T21:29:00.122Z,8.37
2024-01-26T21:34:03.497Z,12.43
2024-01-26T21:39:06.264Z,18.47
2024-01-26T21:44:08.956Z,19.00
2024-01-26T21:49:12.648Z,15.60
2024-01-26T21:54:19.716Z,17.63
2024-01-26T21:59:22.569Z,16.97
2024-01-26T22:04:25.548Z,19.10
2024-01-26T22:14:31.821Z,12.03
2024-01-26T22:19:35.118Z,16.83
2024-01-26T22:24:38.007Z,13.47
2024-01-26T22:29:40.710Z,18.03
2024-01-26T22:34:43.291Z,16.30
2024-01-26T22:39:47.328Z,7.97
2024-01-26T22:44:49.962Z,13.40
2024-01-26T22:49:52.622Z,11.63
2024-01-26T22:54:55.290Z,6.80
2024-01-26T22:59:57.824Z,9.47
2024-01-26T23:05:00.831Z,9.87
2024-01-26T23:10:05.564Z,12.57
2024-01-26T23:15:08.642Z,19.63
2024-01-26T23:20:11.972Z,10.70
2024-01-26T23:25:14.533Z,10.77
2024-01-26T23:30:17.205Z,19.17
2024-01-26T23:35:20.348Z,15.57
2024-01-26T23:40:22.938Z,10.10
2024-01-26T23:45:28.286Z,10.63
2024-01-26T23:50:31.011Z,15.13
2024-01-26T23:55:33.768Z,15.60
